Aviation Digital Data Service (ADDS)

Output produced by METARs form (2346 UTC 15 February 2019)
found at http://www.aviationweather.gov/metar/data/
 
METAR text: EKRK 152320Z AUTO 21008KT 9999NDV NCD 04/M01 Q1025
Conditions at: EKRK (COPENHAGEN/ROSKI, DK) observed 2320 UTC 15 February 2019
Temperature: 4.0°C (39°F)
Dewpoint: -1.0°C (30°F) [RH = 70%]
Pressure (altimeter): 30.27 inches Hg (1025.0 mb)
Winds: from the SSW (210 degrees) at 9 MPH (8 knots; 4.1 m/s)
Visibility: missing
Ceiling: at least 12,000 feet AGL
Clouds: sky clear below 12,000 feet AGL
Weather: no significant weather observed at this time

METAR text: EKRK 152250Z AUTO 20008KT 9999NDV NCD 04/M00 Q1026
Conditions at: EKRK (COPENHAGEN/ROSKI, DK) observed 2250 UTC 15 February 2019
Temperature: 4.0°C (39°F)
Dewpoint: 0.0°C (32°F) [RH = 75%]
Pressure (altimeter): 30.30 inches Hg (1026.0 mb)
Winds: from the SSW (200 degrees) at 9 MPH (8 knots; 4.1 m/s)
Visibility: missing
Ceiling: at least 12,000 feet AGL
Clouds: sky clear below 12,000 feet AGL
Weather: no significant weather observed at this time

METAR text: EKRK 152220Z AUTO 21008KT 9999NDV NCD 04/M00 Q1026
Conditions at: EKRK (COPENHAGEN/ROSKI, DK) observed 2220 UTC 15 February 2019
Temperature: 4.0°C (39°F)
Dewpoint: 0.0°C (32°F) [RH = 75%]
Pressure (altimeter): 30.30 inches Hg (1026.0 mb)
Winds: from the SSW (210 degrees) at 9 MPH (8 knots; 4.1 m/s)
Visibility: missing
Ceiling: at least 12,000 feet AGL
Clouds: sky clear below 12,000 feet AGL
Weather: no significant weather observed at this time

METAR text: EKRK 152150Z AUTO 20008KT 9999NDV NCD 04/M01 Q1026
Conditions at: EKRK (COPENHAGEN/ROSKI, DK) observed 2150 UTC 15 February 2019
Temperature: 4.0°C (39°F)
Dewpoint: -1.0°C (30°F) [RH = 70%]
Pressure (altimeter): 30.30 inches Hg (1026.0 mb)
Winds: from the SSW (200 degrees) at 9 MPH (8 knots; 4.1 m/s)
Visibility: missing
Ceiling: at least 12,000 feet AGL
Clouds: sky clear below 12,000 feet AGL
Weather: no significant weather observed at this time

METAR text: EKRK 152120Z AUTO 20006KT 9999NDV NCD 03/M00 Q1026
Conditions at: EKRK (COPENHAGEN/ROSKI, DK) observed 2120 UTC 15 February 2019
Temperature: 3.0°C (37°F)
Dewpoint: 0.0°C (32°F) [RH = 81%]
Pressure (altimeter): 30.30 inches Hg (1026.0 mb)
Winds: from the SSW (200 degrees) at 7 MPH (6 knots; 3.1 m/s)
Visibility: missing
Ceiling: at least 12,000 feet AGL
Clouds: sky clear below 12,000 feet AGL
Weather: no significant weather observed at this time

METAR text: EKRK 152050Z AUTO 20004KT 9999NDV NCD 03/M01 Q1027
Conditions at: EKRK (COPENHAGEN/ROSKI, DK) observed 2050 UTC 15 February 2019
Temperature: 3.0°C (37°F)
Dewpoint: -1.0°C (30°F) [RH = 75%]
Pressure (altimeter): 30.32 inches Hg (1027.0 mb)
Winds: from the SSW (200 degrees) at 5 MPH (4 knots; 2.1 m/s)
Visibility: missing
Ceiling: at least 12,000 feet AGL
Clouds: sky clear below 12,000 feet AGL
Weather: no significant weather observed at this time

METAR text: EKRK 152020Z AUTO 22006KT 9999NDV NCD 04/00 Q1027
Conditions at: EKRK (COPENHAGEN/ROSKI, DK) observed 2020 UTC 15 February 2019
Temperature: 4.0°C (39°F)
Dewpoint: 0.0°C (32°F) [RH = 75%]
Pressure (altimeter): 30.32 inches Hg (1027.0 mb)
Winds: from the SW (220 degrees) at 7 MPH (6 knots; 3.1 m/s)
Visibility: missing
Ceiling: at least 12,000 feet AGL
Clouds: sky clear below 12,000 feet AGL
Weather: no significant weather observed at this time

METAR text: EKRK 151950Z AUTO 21005KT 9999NDV NCD 03/00 Q1027
Conditions at: EKRK (COPENHAGEN/ROSKI, DK) observed 1950 UTC 15 February 2019
Temperature: 3.0°C (37°F)
Dewpoint: 0.0°C (32°F) [RH = 81%]
Pressure (altimeter): 30.32 inches Hg (1027.0 mb)
Winds: from the SSW (210 degrees) at 6 MPH (5 knots; 2.6 m/s)
Visibility: missing
Ceiling: at least 12,000 feet AGL
Clouds: sky clear below 12,000 feet AGL
Weather: no significant weather observed at this time

METAR text: EKRK 151920Z AUTO 19005KT 9999NDV NCD 03/00 Q1028
Conditions at: EKRK (COPENHAGEN/ROSKI, DK) observed 1920 UTC 15 February 2019
Temperature: 3.0°C (37°F)
Dewpoint: 0.0°C (32°F) [RH = 81%]
Pressure (altimeter): 30.35 inches Hg (1028.0 mb)
Winds: from the S (190 degrees) at 6 MPH (5 knots; 2.6 m/s)
Visibility: missing
Ceiling: at least 12,000 feet AGL
Clouds: sky clear below 12,000 feet AGL
Weather: no significant weather observed at this time

METAR text: EKRK 151850Z AUTO 19002KT 9999NDV NCD 04/01 Q1028
Conditions at: EKRK (COPENHAGEN/ROSKI, DK) observed 1850 UTC 15 February 2019
Temperature: 4.0°C (39°F)
Dewpoint: 1.0°C (34°F) [RH = 81%]
Pressure (altimeter): 30.35 inches Hg (1028.0 mb)
Winds: from the S (190 degrees) at 2 MPH (2 knots; 1.0 m/s)
Visibility: missing
Ceiling: at least 12,000 feet AGL
Clouds: sky clear below 12,000 feet AGL
Weather: no significant weather observed at this time

METAR text: EKRK 151820Z AUTO 21005KT 9999NDV NCD 04/00 Q1028
Conditions at: EKRK (COPENHAGEN/ROSKI, DK) observed 1820 UTC 15 February 2019
Temperature: 4.0°C (39°F)
Dewpoint: 0.0°C (32°F) [RH = 75%]
Pressure (altimeter): 30.35 inches Hg (1028.0 mb)
Winds: from the SSW (210 degrees) at 6 MPH (5 knots; 2.6 m/s)
Visibility: missing
Ceiling: at least 12,000 feet AGL
Clouds: sky clear below 12,000 feet AGL
Weather: no significant weather observed at this time

METAR text: EKRK 151750Z AUTO 23005KT 9999NDV NCD 04/00 Q1028
Conditions at: EKRK (COPENHAGEN/ROSKI, DK) observed 1750 UTC 15 February 2019
Temperature: 4.0°C (39°F)
Dewpoint: 0.0°C (32°F) [RH = 75%]
Pressure (altimeter): 30.35 inches Hg (1028.0 mb)
Winds: from the SW (230 degrees) at 6 MPH (5 knots; 2.6 m/s)
Visibility: missing
Ceiling: at least 12,000 feet AGL
Clouds: sky clear below 12,000 feet AGL
Weather: no significant weather observed at this time

METAR text: EKRK 151720Z AUTO 22005KT 9999NDV NCD 04/01 Q1028
Conditions at: EKRK (COPENHAGEN/ROSKI, DK) observed 1720 UTC 15 February 2019
Temperature: 4.0°C (39°F)
Dewpoint: 1.0°C (34°F) [RH = 81%]
Pressure (altimeter): 30.35 inches Hg (1028.0 mb)
Winds: from the SW (220 degrees) at 6 MPH (5 knots; 2.6 m/s)
Visibility: missing
Ceiling: at least 12,000 feet AGL
Clouds: sky clear below 12,000 feet AGL
Weather: no significant weather observed at this time

METAR text: EKRK 151650Z AUTO 20005KT 9999NDV NCD 05/01 Q1028
Conditions at: EKRK (COPENHAGEN/ROSKI, DK) observed 1650 UTC 15 February 2019
Temperature: 5.0°C (41°F)
Dewpoint: 1.0°C (34°F) [RH = 75%]
Pressure (altimeter): 30.35 inches Hg (1028.0 mb)
Winds: from the SSW (200 degrees) at 6 MPH (5 knots; 2.6 m/s)
Visibility: missing
Ceiling: at least 12,000 feet AGL
Clouds: sky clear below 12,000 feet AGL
Weather: no significant weather observed at this time

METAR text: EKRK 151620Z AUTO 21004KT 9999NDV NCD 06/01 Q1028
Conditions at: EKRK (COPENHAGEN/ROSKI, DK) observed 1620 UTC 15 February 2019
Temperature: 6.0°C (43°F)
Dewpoint: 1.0°C (34°F) [RH = 70%]
Pressure (altimeter): 30.35 inches Hg (1028.0 mb)
Winds: from the SSW (210 degrees) at 5 MPH (4 knots; 2.1 m/s)
Visibility: missing
Ceiling: at least 12,000 feet AGL
Clouds: sky clear below 12,000 feet AGL
Weather: no significant weather observed at this time

METAR text: EKRK 151550Z AUTO 22005KT 9999NDV NCD 07/02 Q1029
Conditions at: EKRK (COPENHAGEN/ROSKI, DK) observed 1550 UTC 15 February 2019
Temperature: 7.0°C (45°F)
Dewpoint: 2.0°C (36°F) [RH = 70%]
Pressure (altimeter): 30.38 inches Hg (1029.0 mb)
Winds: from the SW (220 degrees) at 6 MPH (5 knots; 2.6 m/s)
Visibility: missing
Ceiling: at least 12,000 feet AGL
Clouds: sky clear below 12,000 feet AGL
Weather: no significant weather observed at this time

METAR text: EKRK 151520Z AUTO 21005KT 9999NDV NCD 09/03 Q1029
Conditions at: EKRK (COPENHAGEN/ROSKI, DK) observed 1520 UTC 15 February 2019
Temperature: 9.0°C (48°F)
Dewpoint: 3.0°C (37°F) [RH = 66%]
Pressure (altimeter): 30.38 inches Hg (1029.0 mb)
Winds: from the SSW (210 degrees) at 6 MPH (5 knots; 2.6 m/s)
Visibility: missing
Ceiling: at least 12,000 feet AGL
Clouds: sky clear below 12,000 feet AGL
Weather: no significant weather observed at this time

METAR text: EKRK 151450Z AUTO 24004KT 210V270 9999NDV NCD 09/03 Q1029
Conditions at: EKRK (COPENHAGEN/ROSKI, DK) observed 1450 UTC 15 February 2019
Temperature: 9.0°C (48°F)
Dewpoint: 3.0°C (37°F) [RH = 66%]
Pressure (altimeter): 30.38 inches Hg (1029.0 mb)
Winds: from the WSW (240 degrees) at 5 MPH (4 knots; 2.1 m/s)
Visibility: missing
Ceiling: at least 12,000 feet AGL
Clouds: sky clear below 12,000 feet AGL
Weather: no significant weather observed at this time

METAR text: EKRK 151420Z AUTO 24006KT 200V260 9999NDV NCD 09/03 Q1030
Conditions at: EKRK (COPENHAGEN/ROSKI, DK) observed 1420 UTC 15 February 2019
Temperature: 9.0°C (48°F)
Dewpoint: 3.0°C (37°F) [RH = 66%]
Pressure (altimeter): 30.41 inches Hg (1030.0 mb)
Winds: from the WSW (240 degrees) at 7 MPH (6 knots; 3.1 m/s)
Visibility: missing
Ceiling: at least 12,000 feet AGL
Clouds: sky clear below 12,000 feet AGL
Weather: no significant weather observed at this time

METAR text: EKRK 151350Z AUTO 22007KT 9999NDV NCD 09/03 Q1030
Conditions at: EKRK (COPENHAGEN/ROSKI, DK) observed 1350 UTC 15 February 2019
Temperature: 9.0°C (48°F)
Dewpoint: 3.0°C (37°F) [RH = 66%]
Pressure (altimeter): 30.41 inches Hg (1030.0 mb)
Winds: from the SW (220 degrees) at 8 MPH (7 knots; 3.6 m/s)
Visibility: missing
Ceiling: at least 12,000 feet AGL
Clouds: sky clear below 12,000 feet AGL
Weather: no significant weather observed at this time

METAR text: EKRK 151320Z AUTO 21007KT 9999NDV NCD 09/04 Q1030
Conditions at: EKRK (COPENHAGEN/ROSKI, DK) observed 1320 UTC 15 February 2019
Temperature: 9.0°C (48°F)
Dewpoint: 4.0°C (39°F) [RH = 71%]
Pressure (altimeter): 30.41 inches Hg (1030.0 mb)
Winds: from the SSW (210 degrees) at 8 MPH (7 knots; 3.6 m/s)
Visibility: missing
Ceiling: at least 12,000 feet AGL
Clouds: sky clear below 12,000 feet AGL
Weather: no significant weather observed at this time

METAR text: EKRK 151250Z AUTO 21006KT 9999NDV NCD 09/02 Q1030
Conditions at: EKRK (COPENHAGEN/ROSKI, DK) observed 1250 UTC 15 February 2019
Temperature: 9.0°C (48°F)
Dewpoint: 2.0°C (36°F) [RH = 61%]
Pressure (altimeter): 30.41 inches Hg (1030.0 mb)
Winds: from the SSW (210 degrees) at 7 MPH (6 knots; 3.1 m/s)
Visibility: missing
Ceiling: at least 12,000 feet AGL
Clouds: sky clear below 12,000 feet AGL
Weather: no significant weather observed at this time

METAR text: EKRK 151220Z AUTO 21005KT 9999NDV NCD 09/03 Q1030
Conditions at: EKRK (COPENHAGEN/ROSKI, DK) observed 1220 UTC 15 February 2019
Temperature: 9.0°C (48°F)
Dewpoint: 3.0°C (37°F) [RH = 66%]
Pressure (altimeter): 30.41 inches Hg (1030.0 mb)
Winds: from the SSW (210 degrees) at 6 MPH (5 knots; 2.6 m/s)
Visibility: missing
Ceiling: at least 12,000 feet AGL
Clouds: sky clear below 12,000 feet AGL
Weather: no significant weather observed at this time

METAR text: EKRK 151150Z AUTO 25003KT 9999NDV NCD 08/02 Q1031
Conditions at: EKRK (COPENHAGEN/ROSKI, DK) observed 1150 UTC 15 February 2019
Temperature: 8.0°C (46°F)
Dewpoint: 2.0°C (36°F) [RH = 66%]
Pressure (altimeter): 30.44 inches Hg (1031.0 mb)
Winds: from the WSW (250 degrees) at 3 MPH (3 knots; 1.5 m/s)
Visibility: missing
Ceiling: at least 12,000 feet AGL
Clouds: sky clear below 12,000 feet AGL
Weather: no significant weather observed at this time

METAR text: EKRK 151120Z AUTO 25006KT 9999NDV NCD 07/02 Q1031
Conditions at: EKRK (COPENHAGEN/ROSKI, DK) observed 1120 UTC 15 February 2019
Temperature: 7.0°C (45°F)
Dewpoint: 2.0°C (36°F) [RH = 70%]
Pressure (altimeter): 30.44 inches Hg (1031.0 mb)
Winds: from the WSW (250 degrees) at 7 MPH (6 knots; 3.1 m/s)
Visibility: missing
Ceiling: at least 12,000 feet AGL
Clouds: sky clear below 12,000 feet AGL
Weather: no significant weather observed at this time

METAR text: EKRK 151050Z AUTO 24006KT 210V270 9999NDV NCD 06/02 Q1031
Conditions at: EKRK (COPENHAGEN/ROSKI, DK) observed 1050 UTC 15 February 2019
Temperature: 6.0°C (43°F)
Dewpoint: 2.0°C (36°F) [RH = 75%]
Pressure (altimeter): 30.44 inches Hg (1031.0 mb)
Winds: from the WSW (240 degrees) at 7 MPH (6 knots; 3.1 m/s)
Visibility: missing
Ceiling: at least 12,000 feet AGL
Clouds: sky clear below 12,000 feet AGL
Weather: no significant weather observed at this time

METAR text: EKRK 151020Z AUTO 21007KT 9999NDV NCD 04/02 Q1031
Conditions at: EKRK (COPENHAGEN/ROSKI, DK) observed 1020 UTC 15 February 2019
Temperature: 4.0°C (39°F)
Dewpoint: 2.0°C (36°F) [RH = 87%]
Pressure (altimeter): 30.44 inches Hg (1031.0 mb)
Winds: from the SSW (210 degrees) at 8 MPH (7 knots; 3.6 m/s)
Visibility: missing
Ceiling: at least 12,000 feet AGL
Clouds: sky clear below 12,000 feet AGL
Weather: no significant weather observed at this time

METAR text: EKRK 150950Z AUTO 22006KT 9999NDV NCD 04/02 Q1031
Conditions at: EKRK (COPENHAGEN/ROSKI, DK) observed 0950 UTC 15 February 2019
Temperature: 4.0°C (39°F)
Dewpoint: 2.0°C (36°F) [RH = 87%]
Pressure (altimeter): 30.44 inches Hg (1031.0 mb)
Winds: from the SW (220 degrees) at 7 MPH (6 knots; 3.1 m/s)
Visibility: missing
Ceiling: at least 12,000 feet AGL
Clouds: sky clear below 12,000 feet AGL
Weather: no significant weather observed at this time

METAR text: EKRK 150920Z AUTO 22006KT 7000NDV SCT001/// 03/02 Q1031
Conditions at: EKRK (COPENHAGEN/ROSKI, DK) observed 0920 UTC 15 February 2019
Temperature: 3.0°C (37°F)
Dewpoint: 2.0°C (36°F) [RH = 93%]
Pressure (altimeter): 30.44 inches Hg (1031.0 mb)
Winds: from the SW (220 degrees) at 7 MPH (6 knots; 3.1 m/s)
Visibility: missing
Ceiling: at least 12,000 feet AGL
Clouds: scattered clouds at 100 feet AGL
Weather: no significant weather observed at this time

METAR text: EKRK 150850Z AUTO 21006KT 1500NDV BR BKN001/// 02/02 Q1031
Conditions at: EKRK (COPENHAGEN/ROSKI, DK) observed 0850 UTC 15 February 2019
Temperature: 2.0°C (36°F)
Dewpoint: 2.0°C (36°F) [RH = 100%]
Pressure (altimeter): 30.44 inches Hg (1031.0 mb)
Winds: from the SSW (210 degrees) at 7 MPH (6 knots; 3.1 m/s)
Visibility: missing
Ceiling: 100 feet AGL
Clouds: broken clouds at 100 feet AGL
Weather: BR  (mist)

METAR text: EKRK 150820Z AUTO 23005KT 1400NDV R11/P1500U R29/P1500D BR BKN001/// 02/02 Q1031
Conditions at: EKRK (COPENHAGEN/ROSKI, DK) observed 0820 UTC 15 February 2019
Temperature: 2.0°C (36°F)
Dewpoint: 2.0°C (36°F) [RH = 100%]
Pressure (altimeter): 30.44 inches Hg (1031.0 mb)
Winds: from the SW (230 degrees) at 6 MPH (5 knots; 2.6 m/s)
Visibility: missing
Ceiling: 100 feet AGL
Clouds: broken clouds at 100 feet AGL
Weather: BR  (mist)

METAR text: EKRK 150750Z AUTO 23006KT 1100NDV R11/P1500N R29/P1500D BR BKN001/// 02/02 Q1032
Conditions at: EKRK (COPENHAGEN/ROSKI, DK) observed 0750 UTC 15 February 2019
Temperature: 2.0°C (36°F)
Dewpoint: 2.0°C (36°F) [RH = 100%]
Pressure (altimeter): 30.47 inches Hg (1032.0 mb)
Winds: from the SW (230 degrees) at 7 MPH (6 knots; 3.1 m/s)
Visibility: 0.93 miles (1.50 km)
Ceiling: 100 feet AGL
Clouds: broken clouds at 100 feet AGL
Weather: BR  (mist)

METAR text: EKRK 150720Z AUTO 25004KT 220V280 2500NDV BR OVC002/// 02/02 Q1032
Conditions at: EKRK (COPENHAGEN/ROSKI, DK) observed 0720 UTC 15 February 2019
Temperature: 2.0°C (36°F)
Dewpoint: 2.0°C (36°F) [RH = 100%]
Pressure (altimeter): 30.47 inches Hg (1032.0 mb)
Winds: from the WSW (250 degrees) at 5 MPH (4 knots; 2.1 m/s)
Visibility: missing
Ceiling: 200 feet AGL
Clouds: overcast cloud deck at 200 feet AGL
Weather: BR  (mist)

METAR text: EKRK 150650Z AUTO 25006KT 3200NDV BR BKN003/// 03/02 Q1031
Conditions at: EKRK (COPENHAGEN/ROSKI, DK) observed 0650 UTC 15 February 2019
Temperature: 3.0°C (37°F)
Dewpoint: 2.0°C (36°F) [RH = 93%]
Pressure (altimeter): 30.44 inches Hg (1031.0 mb)
Winds: from the WSW (250 degrees) at 7 MPH (6 knots; 3.1 m/s)
Visibility: missing
Ceiling: 300 feet AGL
Clouds: broken clouds at 300 feet AGL
Weather: BR  (mist)

METAR text: EKRK 150620Z AUTO 25005KT 4600NDV BR BKN004/// 03/02 Q1031
Conditions at: EKRK (COPENHAGEN/ROSKI, DK) observed 0620 UTC 15 February 2019
Temperature: 3.0°C (37°F)
Dewpoint: 2.0°C (36°F) [RH = 93%]
Pressure (altimeter): 30.44 inches Hg (1031.0 mb)
Winds: from the WSW (250 degrees) at 6 MPH (5 knots; 2.6 m/s)
Visibility: missing
Ceiling: 400 feet AGL
Clouds: broken clouds at 400 feet AGL
Weather: BR  (mist)

METAR text: EKRK 150550Z AUTO 27005KT 230V290 5000NDV BKN004/// 03/03 Q1031
Conditions at: EKRK (COPENHAGEN/ROSKI, DK) observed 0550 UTC 15 February 2019
Temperature: 3.0°C (37°F)
Dewpoint: 3.0°C (37°F) [RH = 100%]
Pressure (altimeter): 30.44 inches Hg (1031.0 mb)
Winds: from the W (270 degrees) at 6 MPH (5 knots; 2.6 m/s)
Visibility: missing
Ceiling: 400 feet AGL
Clouds: broken clouds at 400 feet AGL
Weather: no significant weather observed at this time

METAR text: EKRK 150520Z AUTO 26006KT 5000NDV BKN003/// BKN005/// 04/03 Q1031
Conditions at: EKRK (COPENHAGEN/ROSKI, DK) observed 0520 UTC 15 February 2019
Temperature: 4.0°C (39°F)
Dewpoint: 3.0°C (37°F) [RH = 93%]
Pressure (altimeter): 30.44 inches Hg (1031.0 mb)
Winds: from the W (260 degrees) at 7 MPH (6 knots; 3.1 m/s)
Visibility: missing
Ceiling: 300 feet AGL
Clouds: broken clouds at 300 feet AGL
broken clouds at 500 feet AGL
Weather: no significant weather observed at this time

METAR text: EKRK 150450Z AUTO 28004KT 250V310 4300NDV BR BKN003/// BKN005/// 04/03 Q1031
Conditions at: EKRK (COPENHAGEN/ROSKI, DK) observed 0450 UTC 15 February 2019
Temperature: 4.0°C (39°F)
Dewpoint: 3.0°C (37°F) [RH = 93%]
Pressure (altimeter): 30.44 inches Hg (1031.0 mb)
Winds: from the W (280 degrees) at 5 MPH (4 knots; 2.1 m/s)
Visibility: missing
Ceiling: 300 feet AGL
Clouds: broken clouds at 300 feet AGL
broken clouds at 500 feet AGL
Weather: BR  (mist)

METAR text: EKRK 150420Z AUTO 29009KT 5000NDV BKN001/// OVC003/// 04/03 Q1031
Conditions at: EKRK (COPENHAGEN/ROSKI, DK) observed 0420 UTC 15 February 2019
Temperature: 4.0°C (39°F)
Dewpoint: 3.0°C (37°F) [RH = 93%]
Pressure (altimeter): 30.44 inches Hg (1031.0 mb)
Winds: from the WNW (290 degrees) at 10 MPH (9 knots; 4.6 m/s)
Visibility: missing
Ceiling: 100 feet AGL
Clouds: broken clouds at 100 feet AGL
overcast cloud deck at 300 feet AGL
Weather: no significant weather observed at this time

METAR text: EKRK 150350Z AUTO 27007KT 1900NDV BR SCT001/// BKN003/// 04/04 Q1031
Conditions at: EKRK (COPENHAGEN/ROSKI, DK) observed 0350 UTC 15 February 2019
Temperature: 4.0°C (39°F)
Dewpoint: 4.0°C (39°F) [RH = 100%]
Pressure (altimeter): 30.44 inches Hg (1031.0 mb)
Winds: from the W (270 degrees) at 8 MPH (7 knots; 3.6 m/s)
Visibility: missing
Ceiling: 300 feet AGL
Clouds: scattered clouds at 100 feet AGL
broken clouds at 300 feet AGL
Weather: BR  (mist)

METAR text: EKRK 150320Z AUTO 28008KT 2200NDV BR BKN001/// OVC003/// 04/04 Q1031
Conditions at: EKRK (COPENHAGEN/ROSKI, DK) observed 0320 UTC 15 February 2019
Temperature: 4.0°C (39°F)
Dewpoint: 4.0°C (39°F) [RH = 100%]
Pressure (altimeter): 30.44 inches Hg (1031.0 mb)
Winds: from the W (280 degrees) at 9 MPH (8 knots; 4.1 m/s)
Visibility: missing
Ceiling: 100 feet AGL
Clouds: broken clouds at 100 feet AGL
overcast cloud deck at 300 feet AGL
Weather: BR  (mist)

METAR text: EKRK 150250Z AUTO 27009KT 2300NDV BR BKN001/// 04/04 Q1031
Conditions at: EKRK (COPENHAGEN/ROSKI, DK) observed 0250 UTC 15 February 2019
Temperature: 4.0°C (39°F)
Dewpoint: 4.0°C (39°F) [RH = 100%]
Pressure (altimeter): 30.44 inches Hg (1031.0 mb)
Winds: from the W (270 degrees) at 10 MPH (9 knots; 4.6 m/s)
Visibility: missing
Ceiling: 100 feet AGL
Clouds: broken clouds at 100 feet AGL
Weather: BR  (mist)

METAR text: EKRK 150220Z AUTO 28008KT 2500NDV BR SCT001/// OVC003/// 04/04 Q1031
Conditions at: EKRK (COPENHAGEN/ROSKI, DK) observed 0220 UTC 15 February 2019
Temperature: 4.0°C (39°F)
Dewpoint: 4.0°C (39°F) [RH = 100%]
Pressure (altimeter): 30.44 inches Hg (1031.0 mb)
Winds: from the W (280 degrees) at 9 MPH (8 knots; 4.1 m/s)
Visibility: missing
Ceiling: 300 feet AGL
Clouds: scattered clouds at 100 feet AGL
overcast cloud deck at 300 feet AGL
Weather: BR  (mist)

METAR text: EKRK 150150Z AUTO 28009KT 240V300 2900NDV BR BKN002/// BKN004/// 04/04 Q1032
Conditions at: EKRK (COPENHAGEN/ROSKI, DK) observed 0150 UTC 15 February 2019
Temperature: 4.0°C (39°F)
Dewpoint: 4.0°C (39°F) [RH = 100%]
Pressure (altimeter): 30.47 inches Hg (1032.0 mb)
Winds: from the W (280 degrees) at 10 MPH (9 knots; 4.6 m/s)
Visibility: missing
Ceiling: 200 feet AGL
Clouds: broken clouds at 200 feet AGL
broken clouds at 400 feet AGL
Weather: BR  (mist)

METAR text: EKRK 150120Z AUTO 29009KT 4200NDV BR BKN003/// OVC005/// 04/04 Q1032
Conditions at: EKRK (COPENHAGEN/ROSKI, DK) observed 0120 UTC 15 February 2019
Temperature: 4.0°C (39°F)
Dewpoint: 4.0°C (39°F) [RH = 100%]
Pressure (altimeter): 30.47 inches Hg (1032.0 mb)
Winds: from the WNW (290 degrees) at 10 MPH (9 knots; 4.6 m/s)
Visibility: missing
Ceiling: 300 feet AGL
Clouds: broken clouds at 300 feet AGL
overcast cloud deck at 500 feet AGL
Weather: BR  (mist)

METAR text: EKRK 150050Z AUTO 28009KT 3600NDV BR BKN003/// BKN005/// 05/04 Q1031
Conditions at: EKRK (COPENHAGEN/ROSKI, DK) observed 0050 UTC 15 February 2019
Temperature: 5.0°C (41°F)
Dewpoint: 4.0°C (39°F) [RH = 93%]
Pressure (altimeter): 30.44 inches Hg (1031.0 mb)
Winds: from the W (280 degrees) at 10 MPH (9 knots; 4.6 m/s)
Visibility: missing
Ceiling: 300 feet AGL
Clouds: broken clouds at 300 feet AGL
broken clouds at 500 feet AGL
Weather: BR  (mist)

METAR text: EKRK 150020Z AUTO 27008KT 4700NDV BR BKN004/// OVC006/// 05/04 Q1031
Conditions at: EKRK (COPENHAGEN/ROSKI, DK) observed 0020 UTC 15 February 2019
Temperature: 5.0°C (41°F)
Dewpoint: 4.0°C (39°F) [RH = 93%]
Pressure (altimeter): 30.44 inches Hg (1031.0 mb)
Winds: from the W (270 degrees) at 9 MPH (8 knots; 4.1 m/s)
Visibility: missing
Ceiling: 400 feet AGL
Clouds: broken clouds at 400 feet AGL
overcast cloud deck at 600 feet AGL
Weather: BR  (mist)

METAR text: EKRK 142350Z AUTO 27009KT 6000NDV BKN005/// BKN008/// 05/04 Q1031
Conditions at: EKRK (COPENHAGEN/ROSKI, DK) observed 2350 UTC 14 February 2019
Temperature: 5.0°C (41°F)
Dewpoint: 4.0°C (39°F) [RH = 93%]
Pressure (altimeter): 30.44 inches Hg (1031.0 mb)
Winds: from the W (270 degrees) at 10 MPH (9 knots; 4.6 m/s)
Visibility: missing
Ceiling: 500 feet AGL
Clouds: broken clouds at 500 feet AGL
broken clouds at 800 feet AGL
Weather: no significant weather observed at this time

METAR text: EKRK 142320Z AUTO 27008KT 4800NDV BR FEW005/// BKN008/// OVC010/// 05/04 Q1031
Conditions at: EKRK (COPENHAGEN/ROSKI, DK) observed 2320 UTC 14 February 2019
Temperature: 5.0°C (41°F)
Dewpoint: 4.0°C (39°F) [RH = 93%]
Pressure (altimeter): 30.44 inches Hg (1031.0 mb)
Winds: from the W (270 degrees) at 9 MPH (8 knots; 4.1 m/s)
Visibility: missing
Ceiling: 800 feet AGL
Clouds: few clouds at 500 feet AGL
broken clouds at 800 feet AGL
overcast cloud deck at 1000 feet AGL
Weather: BR  (mist)

METAR text: EKRK 142220Z AUTO 27007KT 4100NDV BR BKN011/// 05/04 Q1031
Conditions at: EKRK (COPENHAGEN/ROSKI, DK) observed 2220 UTC 14 February 2019
Temperature: 5.0°C (41°F)
Dewpoint: 4.0°C (39°F) [RH = 93%]
Pressure (altimeter): 30.44 inches Hg (1031.0 mb)
Winds: from the W (270 degrees) at 8 MPH (7 knots; 3.6 m/s)
Visibility: missing
Ceiling: 1100 feet AGL
Clouds: broken clouds at 1100 feet AGL
Weather: BR  (mist)

METAR text: EKRK 142150Z AUTO 27006KT 4600NDV BR BKN011/// 05/04 Q1031
Conditions at: EKRK (COPENHAGEN/ROSKI, DK) observed 2150 UTC 14 February 2019
Temperature: 5.0°C (41°F)
Dewpoint: 4.0°C (39°F) [RH = 93%]
Pressure (altimeter): 30.44 inches Hg (1031.0 mb)
Winds: from the W (270 degrees) at 7 MPH (6 knots; 3.1 m/s)
Visibility: missing
Ceiling: 1100 feet AGL
Clouds: broken clouds at 1100 feet AGL
Weather: BR  (mist)

METAR text: EKRK 142120Z AUTO 27008KT 5000NDV BKN011/// OVC014/// 05/04 Q1031
Conditions at: EKRK (COPENHAGEN/ROSKI, DK) observed 2120 UTC 14 February 2019
Temperature: 5.0°C (41°F)
Dewpoint: 4.0°C (39°F) [RH = 93%]
Pressure (altimeter): 30.44 inches Hg (1031.0 mb)
Winds: from the W (270 degrees) at 9 MPH (8 knots; 4.1 m/s)
Visibility: missing
Ceiling: 1100 feet AGL
Clouds: broken clouds at 1100 feet AGL
overcast cloud deck at 1400 feet AGL
Weather: no significant weather observed at this time

METAR text: EKRK 142050Z AUTO 26008KT 6000NDV BKN012/// 06/04 Q1031
Conditions at: EKRK (COPENHAGEN/ROSKI, DK) observed 2050 UTC 14 February 2019
Temperature: 6.0°C (43°F)
Dewpoint: 4.0°C (39°F) [RH = 87%]
Pressure (altimeter): 30.44 inches Hg (1031.0 mb)
Winds: from the W (260 degrees) at 9 MPH (8 knots; 4.1 m/s)
Visibility: missing
Ceiling: 1200 feet AGL
Clouds: broken clouds at 1200 feet AGL
Weather: no significant weather observed at this time

METAR text: EKRK 142020Z AUTO 26007KT 6000NDV BKN011/// OVC014/// 06/04 Q1031
Conditions at: EKRK (COPENHAGEN/ROSKI, DK) observed 2020 UTC 14 February 2019
Temperature: 6.0°C (43°F)
Dewpoint: 4.0°C (39°F) [RH = 87%]
Pressure (altimeter): 30.44 inches Hg (1031.0 mb)
Winds: from the W (260 degrees) at 8 MPH (7 knots; 3.6 m/s)
Visibility: missing
Ceiling: 1100 feet AGL
Clouds: broken clouds at 1100 feet AGL
overcast cloud deck at 1400 feet AGL
Weather: no significant weather observed at this time

METAR text: EKRK 141950Z AUTO 27008KT 7000NDV BKN011/// 05/04 Q1031
Conditions at: EKRK (COPENHAGEN/ROSKI, DK) observed 1950 UTC 14 February 2019
Temperature: 5.0°C (41°F)
Dewpoint: 4.0°C (39°F) [RH = 93%]
Pressure (altimeter): 30.44 inches Hg (1031.0 mb)
Winds: from the W (270 degrees) at 9 MPH (8 knots; 4.1 m/s)
Visibility: missing
Ceiling: 1100 feet AGL
Clouds: broken clouds at 1100 feet AGL
Weather: no significant weather observed at this time

METAR text: EKRK 141920Z AUTO 26008KT 9000NDV OVC010/// 06/04 Q1031
Conditions at: EKRK (COPENHAGEN/ROSKI, DK) observed 1920 UTC 14 February 2019
Temperature: 6.0°C (43°F)
Dewpoint: 4.0°C (39°F) [RH = 87%]
Pressure (altimeter): 30.44 inches Hg (1031.0 mb)
Winds: from the W (260 degrees) at 9 MPH (8 knots; 4.1 m/s)
Visibility: missing
Ceiling: 1000 feet AGL
Clouds: overcast cloud deck at 1000 feet AGL
Weather: no significant weather observed at this time

METAR text: EKRK 141850Z AUTO 28010KT 8000NDV SCT008/// BKN010/// 06/04 Q1031
Conditions at: EKRK (COPENHAGEN/ROSKI, DK) observed 1850 UTC 14 February 2019
Temperature: 6.0°C (43°F)
Dewpoint: 4.0°C (39°F) [RH = 87%]
Pressure (altimeter): 30.44 inches Hg (1031.0 mb)
Winds: from the W (280 degrees) at 12 MPH (10 knots; 5.1 m/s)
Visibility: missing
Ceiling: 1000 feet AGL
Clouds: scattered clouds at 800 feet AGL
broken clouds at 1000 feet AGL
Weather: no significant weather observed at this time

METAR text: EKRK 141820Z AUTO 28012KT 7000NDV SCT009/// OVC011/// 06/04 Q1031
Conditions at: EKRK (COPENHAGEN/ROSKI, DK) observed 1820 UTC 14 February 2019
Temperature: 6.0°C (43°F)
Dewpoint: 4.0°C (39°F) [RH = 87%]
Pressure (altimeter): 30.44 inches Hg (1031.0 mb)
Winds: from the W (280 degrees) at 14 MPH (12 knots; 6.2 m/s)
Visibility: missing
Ceiling: 1100 feet AGL
Clouds: scattered clouds at 900 feet AGL
overcast cloud deck at 1100 feet AGL
Weather: no significant weather observed at this time

METAR text: EKRK 141750Z AUTO 29011KT 6000NDV FEW008/// BKN010/// 06/04 Q1031
Conditions at: EKRK (COPENHAGEN/ROSKI, DK) observed 1750 UTC 14 February 2019
Temperature: 6.0°C (43°F)
Dewpoint: 4.0°C (39°F) [RH = 87%]
Pressure (altimeter): 30.44 inches Hg (1031.0 mb)
Winds: from the WNW (290 degrees) at 13 MPH (11 knots; 5.7 m/s)
Visibility: missing
Ceiling: 1000 feet AGL
Clouds: few clouds at 800 feet AGL
broken clouds at 1000 feet AGL
Weather: no significant weather observed at this time

METAR text: EKRK 141720Z AUTO 28010KT 4800NDV BR SCT008/// OVC010/// 06/04 Q1031
Conditions at: EKRK (COPENHAGEN/ROSKI, DK) observed 1720 UTC 14 February 2019
Temperature: 6.0°C (43°F)
Dewpoint: 4.0°C (39°F) [RH = 87%]
Pressure (altimeter): 30.44 inches Hg (1031.0 mb)
Winds: from the W (280 degrees) at 12 MPH (10 knots; 5.1 m/s)
Visibility: missing
Ceiling: 1000 feet AGL
Clouds: scattered clouds at 800 feet AGL
overcast cloud deck at 1000 feet AGL
Weather: BR  (mist)

METAR text: EKRK 141650Z AUTO 27011KT 5000NDV BKN008/// BKN010/// 06/04 Q1031
Conditions at: EKRK (COPENHAGEN/ROSKI, DK) observed 1650 UTC 14 February 2019
Temperature: 6.0°C (43°F)
Dewpoint: 4.0°C (39°F) [RH = 87%]
Pressure (altimeter): 30.44 inches Hg (1031.0 mb)
Winds: from the W (270 degrees) at 13 MPH (11 knots; 5.7 m/s)
Visibility: missing
Ceiling: 800 feet AGL
Clouds: broken clouds at 800 feet AGL
broken clouds at 1000 feet AGL
Weather: no significant weather observed at this time

METAR text: EKRK 141620Z AUTO 27010KT 4900NDV BR BKN007/// OVC009/// 06/04 Q1031
Conditions at: EKRK (COPENHAGEN/ROSKI, DK) observed 1620 UTC 14 February 2019
Temperature: 6.0°C (43°F)
Dewpoint: 4.0°C (39°F) [RH = 87%]
Pressure (altimeter): 30.44 inches Hg (1031.0 mb)
Winds: from the W (270 degrees) at 12 MPH (10 knots; 5.1 m/s)
Visibility: missing
Ceiling: 700 feet AGL
Clouds: broken clouds at 700 feet AGL
overcast cloud deck at 900 feet AGL
Weather: BR  (mist)

METAR text: EKRK 141550Z AUTO 27008KT 4800NDV BR SCT006/// BKN008/// 06/04 Q1031
Conditions at: EKRK (COPENHAGEN/ROSKI, DK) observed 1550 UTC 14 February 2019
Temperature: 6.0°C (43°F)
Dewpoint: 4.0°C (39°F) [RH = 87%]
Pressure (altimeter): 30.44 inches Hg (1031.0 mb)
Winds: from the W (270 degrees) at 9 MPH (8 knots; 4.1 m/s)
Visibility: missing
Ceiling: 800 feet AGL
Clouds: scattered clouds at 600 feet AGL
broken clouds at 800 feet AGL
Weather: BR  (mist)

METAR text: EKRK 141520Z AUTO 27010KT 4200NDV BR SCT003/// OVC006/// 05/05 Q1031
Conditions at: EKRK (COPENHAGEN/ROSKI, DK) observed 1520 UTC 14 February 2019
Temperature: 5.0°C (41°F)
Dewpoint: 5.0°C (41°F) [RH = 100%]
Pressure (altimeter): 30.44 inches Hg (1031.0 mb)
Winds: from the W (270 degrees) at 12 MPH (10 knots; 5.1 m/s)
Visibility: missing
Ceiling: 600 feet AGL
Clouds: scattered clouds at 300 feet AGL
overcast cloud deck at 600 feet AGL
Weather: BR  (mist)

METAR text: EKRK 141450Z AUTO 25008KT 1800NDV BR BKN002/// BKN004/// 05/05 Q1031
Conditions at: EKRK (COPENHAGEN/ROSKI, DK) observed 1450 UTC 14 February 2019
Temperature: 5.0°C (41°F)
Dewpoint: 5.0°C (41°F) [RH = 100%]
Pressure (altimeter): 30.44 inches Hg (1031.0 mb)
Winds: from the WSW (250 degrees) at 9 MPH (8 knots; 4.1 m/s)
Visibility: missing
Ceiling: 200 feet AGL
Clouds: broken clouds at 200 feet AGL
broken clouds at 400 feet AGL
Weather: BR  (mist)

METAR text: EKRK 141420Z AUTO 24007KT 2500NDV BR BKN003/// OVC005/// 05/05 Q1031
Conditions at: EKRK (COPENHAGEN/ROSKI, DK) observed 1420 UTC 14 February 2019
Temperature: 5.0°C (41°F)
Dewpoint: 5.0°C (41°F) [RH = 100%]
Pressure (altimeter): 30.44 inches Hg (1031.0 mb)
Winds: from the WSW (240 degrees) at 8 MPH (7 knots; 3.6 m/s)
Visibility: missing
Ceiling: 300 feet AGL
Clouds: broken clouds at 300 feet AGL
overcast cloud deck at 500 feet AGL
Weather: BR  (mist)

METAR text: EKRK 141350Z AUTO 25009KT 3100NDV BR BKN003/// BKN005/// 05/05 Q1031
Conditions at: EKRK (COPENHAGEN/ROSKI, DK) observed 1350 UTC 14 February 2019
Temperature: 5.0°C (41°F)
Dewpoint: 5.0°C (41°F) [RH = 100%]
Pressure (altimeter): 30.44 inches Hg (1031.0 mb)
Winds: from the WSW (250 degrees) at 10 MPH (9 knots; 4.6 m/s)
Visibility: missing
Ceiling: 300 feet AGL
Clouds: broken clouds at 300 feet AGL
broken clouds at 500 feet AGL
Weather: BR  (mist)

METAR text: EKRK 141320Z AUTO 25009KT 220V280 4200NDV BR BKN003/// OVC005/// 05/04 Q1031
Conditions at: EKRK (COPENHAGEN/ROSKI, DK) observed 1320 UTC 14 February 2019
Temperature: 5.0°C (41°F)
Dewpoint: 4.0°C (39°F) [RH = 93%]
Pressure (altimeter): 30.44 inches Hg (1031.0 mb)
Winds: from the WSW (250 degrees) at 10 MPH (9 knots; 4.6 m/s)
Visibility: missing
Ceiling: 300 feet AGL
Clouds: broken clouds at 300 feet AGL
overcast cloud deck at 500 feet AGL
Weather: BR  (mist)

METAR text: EKRK 141250Z AUTO 25009KT 4000NDV BR BKN003/// 05/04 Q1032
Conditions at: EKRK (COPENHAGEN/ROSKI, DK) observed 1250 UTC 14 February 2019
Temperature: 5.0°C (41°F)
Dewpoint: 4.0°C (39°F) [RH = 93%]
Pressure (altimeter): 30.47 inches Hg (1032.0 mb)
Winds: from the WSW (250 degrees) at 10 MPH (9 knots; 4.6 m/s)
Visibility: missing
Ceiling: 300 feet AGL
Clouds: broken clouds at 300 feet AGL
Weather: BR  (mist)

METAR text: EKRK 141220Z AUTO 24008KT 3800NDV BR BKN003/// OVC005/// 05/04 Q1032
Conditions at: EKRK (COPENHAGEN/ROSKI, DK) observed 1220 UTC 14 February 2019
Temperature: 5.0°C (41°F)
Dewpoint: 4.0°C (39°F) [RH = 93%]
Pressure (altimeter): 30.47 inches Hg (1032.0 mb)
Winds: from the WSW (240 degrees) at 9 MPH (8 knots; 4.1 m/s)
Visibility: missing
Ceiling: 300 feet AGL
Clouds: broken clouds at 300 feet AGL
overcast cloud deck at 500 feet AGL
Weather: BR  (mist)

METAR text: EKRK 141150Z AUTO 24009KT 3800NDV BR BKN002/// OVC004/// 05/04 Q1032
Conditions at: EKRK (COPENHAGEN/ROSKI, DK) observed 1150 UTC 14 February 2019
Temperature: 5.0°C (41°F)
Dewpoint: 4.0°C (39°F) [RH = 93%]
Pressure (altimeter): 30.47 inches Hg (1032.0 mb)
Winds: from the WSW (240 degrees) at 10 MPH (9 knots; 4.6 m/s)
Visibility: missing
Ceiling: 200 feet AGL
Clouds: broken clouds at 200 feet AGL
overcast cloud deck at 400 feet AGL
Weather: BR  (mist)

Forecast for: EKRK (COPENHAGEN/ROSKI, DK)
Text: TAF EKRK 152324Z 1600/1609 21008KT CAVOK
Forecast period: 0000 to 0900 UTC 16 February 2019
Forecast type: FROM: standard forecast or significant change
Winds: from the SSW (210 degrees) at 9 MPH (8 knots; 4.1 m/s)
Visibility: 6 or more miles 10+ km)
Ceiling: unknown
Clouds: missing
Weather: NSW  (no significant weather)
Text: PROB40 1601/1609 4000 BR
Forecast period: 0100 to 0900 UTC 16 February 2019
Forecast type: PROBABLE: 40 percent likelihood of the following during this time
Visibility: 2.49 miles (4.01 km)
Ceiling: unknown
Clouds: missing
Weather: BR  (mist)